Portada
METAR-TAF:

METAR-TAF

Aeroports :

Žilina, Eslovàquia

latitud: 49-14N, longitud: 018-36-49E, altitud: 312 m

Observació

L'informe es va fer fa 29 minuts, a les 14:00 UTC
Vent 5 kt del Oest, variant entre Sud/Sud-Oest i Nord/Nord-Oest
Temperatura 29°C
Humitat 37%
Pressió 1017 hPa
Visibilitat 10 km o més
sense núvols per sota de 1500 mi sense presència de cumulonimbus.

METAR: LZZI 181400Z 26005KT 200V330 CAVOK 29/13 Q1017

Hora: 16:29 (14:29 UTC)

Pronòstic

L'informe es va fer fa 3 hores i 29 minuts, a les 11:00 UTC
Pronòstic vàlid del 18 a les 12 UTC al 18 a les 21 UTC
Vent 7 kt del Est/Nord-Est
Visibilitat 10 km o més
sense núvols per sota de 1500 mi sense presència de cumulonimbus.
Temporalment
l' 18 a les 12 UTC al 18 a les 16 UTC
Visibilitat 10 km o més
Escasses núvols a una alçada de 5000 ft
Evolucionant progressivament
l' 18 a les 18 UTC al 18 a les 20 UTC
Vent 2 kt amb direcció variable

TAF: LZZI 181100Z 1812/1821 06007KT CAVOK TEMPO 1812/1816 9999 FEW050 BECMG 1818/1820 VRB02KT

Observacions i pronòstics meteorològics de més de 4000 aeroports (METAR i TAF).

Les estacions disponibles són els punts grocs i vermells al mapa.

Posi el ratolí al punt desitjat per veure el nom de l'estació.

Feu clic per veure les observacions i els pronòstics meteorològics.

Per canviar el mapa: feu clic els botons verds amb una creu de color negre per apropar; al botó verd amb un guió per allunyar la imatge; o en les fletxes verdes per a mapes adjacents.


METAR-TAF: